Time;durP1;ratioP1;P1;durP2;ratioP2;P2;SDS_P1;SDS_P2;PMS_P1;PMS_P2;Temp;Humidity;BMP_temperature;BMP_pressure;BME280_temperature;BME280_humidity;BME280_pressure;Samples;Min_cycle;Max_cycle;Signal;HPM_P1;HPM_P2
2023/07/19 00:00:31;;;;;;;;;;;;;;;17.93;54.60;101363.72;4952568;29;19929;-79
2023/07/19 00:02:57;;;;;;;;;;;;;;;17.78;55.93;101366.09;4936943;29;19938;-79
2023/07/19 00:05:22;;;;;;;;;;;;;;;17.67;55.68;101352.28;4935720;29;19950;-80
2023/07/19 00:07:48;;;;;;;;;;;;;;;17.57;54.06;101350.94;4952527;29;19945;-79
2023/07/19 00:10:13;;;;;;;;;;;;;;;17.51;55.67;101348.53;4953489;29;19941;-79
2023/07/19 00:12:38;;;;;;;;;;;;;;;17.45;55.28;101343.44;4954208;29;20076;-79
2023/07/19 00:15:04;;;;;;;;;;;;;;;17.31;54.08;101339.53;4952589;29;19925;-79
2023/07/19 00:17:29;;;;;;;;;;;;;;;17.22;55.96;101333.69;4953778;29;19923;-80
2023/07/19 00:19:55;;;;;;;;;;;;;;;17.17;55.39;101345.47;4941598;29;19989;-80
2023/07/19 00:22:20;;;;;;;;;;;;;;;17.09;55.84;101342.25;4934109;29;19926;-80
2023/07/19 00:24:45;;;;;;;;;;;;;;;17.02;56.84;101340.75;4953910;29;19922;-79
2023/07/19 00:27:10;;;;;;;;;;;;;;;16.98;57.20;101336.44;4953831;29;19923;-79
2023/07/19 00:29:36;;;;;;;;;;;;;;;16.95;57.97;101336.56;4952420;29;19922;-79
2023/07/19 00:32:02;;;;;;;;;;;;;;;16.88;57.21;101327.03;4952422;29;19922;-80
2023/07/19 00:34:28;;;;;;;;;;;;;;;16.81;57.88;101330.91;4952162;29;19930;-79
2023/07/19 00:36:53;;;;;;;;;;;;;;;16.73;57.04;101318.66;4936349;29;19965;-79
2023/07/19 00:39:18;;;;;;;;;;;;;;;16.65;58.05;101320.78;4953474;29;19922;-79
2023/07/19 00:41:44;;;;;;;;;;;;;;;16.62;59.07;101315.56;4953672;29;20069;-79
2023/07/19 00:44:09;;;;;;;;;;;;;;;16.59;59.40;101313.00;4934692;29;20053;-79
2023/07/19 00:46:36;;;;;;;;;;;;;;;16.59;58.91;101309.44;4953565;29;19989;-79
2023/07/19 00:49:02;;;;;;;;;;;;;;;16.56;58.66;101297.94;4953064;29;19942;-79
2023/07/19 00:51:29;;;;;;;;;;;;;;;16.53;56.35;101305.22;4950842;28;20005;-79
2023/07/19 00:53:55;;;;;;;;;;;;;;;16.48;58.10;101300.06;4936164;29;19965;-79
2023/07/19 00:56:23;;;;;;;;;;;;;;;16.44;57.95;101300.22;4935822;29;19922;-79
2023/07/19 00:58:52;;;;;;;;;;;;;;;16.38;58.74;101298.66;4953553;29;20005;-80
2023/07/19 01:01:20;;;;;;;;;;;;;;;16.32;58.68;101294.44;4935975;29;19999;-79
2023/07/19 01:03:45;;;;;;;;;;;;;;;16.27;58.69;101292.84;4953050;29;19923;-79
2023/07/19 01:06:10;;;;;;;;;;;;;;;16.25;59.29;101297.41;4933528;29;19932;-80
2023/07/19 01:08:36;;;;;;;;;;;;;;;16.26;59.42;101301.81;4951261;28;19941;-79
2023/07/19 01:11:01;;;;;;;;;;;;;;;16.29;59.70;101296.34;4935395;29;19919;-79
2023/07/19 01:13:27;;;;;;;;;;;;;;;16.31;61.38;101294.50;4935781;29;20029;-79
2023/07/19 01:15:52;;;;;;;;;;;;;;;16.30;60.21;101292.75;4930733;29;19934;-80
2023/07/19 01:18:18;;;;;;;;;;;;;;;16.29;59.92;101291.88;4940720;29;19981;-79
2023/07/19 01:20:43;;;;;;;;;;;;;;;16.29;61.63;101289.19;4942721;29;20021;-78
2023/07/19 01:23:08;;;;;;;;;;;;;;;16.28;60.94;101283.94;4943439;29;19931;-79
2023/07/19 01:25:34;;;;;;;;;;;;;;;16.28;62.87;101281.25;4944312;29;19930;-78
2023/07/19 01:28:00;;;;;;;;;;;;;;;16.23;64.79;101288.59;4928401;29;19990;-80
2023/07/19 01:30:25;;;;;;;;;;;;;;;16.27;64.40;101285.72;4949506;29;19926;-79
2023/07/19 01:32:51;;;;;;;;;;;;;;;16.35;63.66;101285.44;4928999;29;19981;-79
2023/07/19 01:35:16;;;;;;;;;;;;;;;16.43;64.49;101291.34;4955125;29;20117;-79
2023/07/19 01:37:42;;;;;;;;;;;;;;;16.52;62.67;101291.00;4954984;29;19925;-79
2023/07/19 01:40:09;;;;;;;;;;;;;;;16.54;61.68;101273.09;4955311;29;19941;-80
2023/07/19 01:42:34;;;;;;;;;;;;;;;16.52;61.36;101277.63;4940218;29;19922;-80
2023/07/19 01:45:01;;;;;;;;;;;;;;;16.46;60.62;101280.53;4944643;29;19926;-79
2023/07/19 01:47:26;;;;;;;;;;;;;;;16.41;60.35;101276.28;4957132;29;19934;-79
2023/07/19 01:49:52;;;;;;;;;;;;;;;16.38;61.04;101287.13;4960013;29;19918;-79
2023/07/19 01:52:17;;;;;;;;;;;;;;;16.35;61.48;101277.41;4959936;29;19923;-79
2023/07/19 01:54:43;;;;;;;;;;;;;;;16.32;60.72;101280.22;4956227;29;20020;-79
2023/07/19 01:57:08;;;;;;;;;;;;;;;16.24;61.79;101283.16;4923881;29;20285;-80
2023/07/19 01:59:34;;;;;;;;;;;;;;;16.19;62.52;101278.94;4955946;29;20135;-79
2023/07/19 02:01:59;;;;;;;;;;;;;;;16.17;62.77;101278.09;4938868;29;19927;-79
2023/07/19 02:04:26;;;;;;;;;;;;;;;16.15;62.10;101272.84;4956020;29;19922;-79
2023/07/19 02:06:52;;;;;;;;;;;;;;;16.14;61.98;101271.09;4954853;29;19922;-79
2023/07/19 02:09:17;;;;;;;;;;;;;;;16.14;63.05;101273.75;4959041;28;19922;-79
2023/07/19 02:11:43;;;;;;;;;;;;;;;16.10;65.13;101269.47;4944585;29;19928;-79
2023/07/19 02:14:08;;;;;;;;;;;;;;;16.01;65.45;101270.69;4938394;29;19922;-79
2023/07/19 02:16:34;;;;;;;;;;;;;;;15.99;63.90;101269.88;4956186;29;20046;-79
2023/07/19 02:18:59;;;;;;;;;;;;;;;16.01;63.06;101268.00;4954901;28;20009;-79
2023/07/19 02:21:25;;;;;;;;;;;;;;;15.97;62.52;101270.84;4956026;29;20449;-79
2023/07/19 02:23:50;;;;;;;;;;;;;;;15.97;62.45;101260.16;4953162;28;19974;-79
2023/07/19 02:26:15;;;;;;;;;;;;;;;15.99;61.42;101258.31;4938470;29;19923;-79
2023/07/19 02:28:41;;;;;;;;;;;;;;;15.99;63.01;101252.97;4954842;28;19980;-79
2023/07/19 02:31:06;;;;;;;;;;;;;;;15.98;62.00;101257.44;4954289;29;19922;-79
2023/07/19 02:33:31;;;;;;;;;;;;;;;16.00;62.89;101255.59;4954558;29;20348;-79
2023/07/19 02:35:57;;;;;;;;;;;;;;;16.02;64.06;101268.88;4954281;29;19927;-79
2023/07/19 02:38:23;;;;;;;;;;;;;;;16.06;64.61;101251.81;4954239;29;20061;-79
2023/07/19 02:40:49;;;;;;;;;;;;;;;16.11;64.40;101264.06;4954226;29;20357;-79
2023/07/19 02:43:14;;;;;;;;;;;;;;;16.11;64.38;101256.03;4925051;29;19981;-80
2023/07/19 02:45:40;;;;;;;;;;;;;;;16.09;67.14;101257.91;4955223;29;19927;-79
2023/07/19 02:48:06;;;;;;;;;;;;;;;16.07;64.24;101262.44;4954300;29;19926;-79
2023/07/19 02:50:31;;;;;;;;;;;;;;;16.09;64.72;101265.91;4953549;29;19922;-79
2023/07/19 02:52:57;;;;;;;;;;;;;;;16.14;63.61;101263.06;4922366;29;20309;-79
2023/07/19 02:55:22;;;;;;;;;;;;;;;16.18;63.90;101261.16;4941818;29;19954;-80
2023/07/19 02:57:47;;;;;;;;;;;;;;;16.19;63.98;101268.25;4938041;29;19959;-79
2023/07/19 03:00:13;;;;;;;;;;;;;;;16.19;64.23;101268.25;4953602;29;19919;-80
2023/07/19 03:02:38;;;;;;;;;;;;;;;16.21;64.01;101269.91;4953937;29;19926;-79
2023/07/19 03:05:04;;;;;;;;;;;;;;;16.22;64.18;101261.00;4937748;29;19922;-79
2023/07/19 03:07:29;;;;;;;;;;;;;;;16.21;63.69;101258.38;4955307;29;19927;-79
2023/07/19 03:09:55;;;;;;;;;;;;;;;16.22;64.01;101260.09;4938234;29;20285;-79
2023/07/19 03:12:20;;;;;;;;;;;;;;;16.22;63.14;101260.09;4940281;29;19918;-79
2023/07/19 03:14:46;;;;;;;;;;;;;;;16.20;64.25;101261.97;4954900;29;19933;-79
2023/07/19 03:17:11;;;;;;;;;;;;;;;16.19;63.58;101270.91;4940115;29;20285;-79
2023/07/19 03:19:37;;;;;;;;;;;;;;;16.18;61.78;101262.03;4921662;29;19930;-79
2023/07/19 03:22:02;;;;;;;;;;;;;;;16.19;63.69;101257.56;4954965;29;19931;-79
2023/07/19 03:24:28;;;;;;;;;;;;;;;16.19;63.03;101265.56;4940228;29;20388;-79
2023/07/19 03:26:53;;;;;;;;;;;;;;;16.20;64.21;101260.19;4929383;29;19923;-79
2023/07/19 03:29:19;;;;;;;;;;;;;;;16.23;64.19;101269.88;4937292;29;19929;-79
2023/07/19 03:31:44;;;;;;;;;;;;;;;16.25;67.22;101266.22;4937587;29;20337;-79
2023/07/19 03:34:10;;;;;;;;;;;;;;;16.21;66.74;101269.06;4969597;28;19929;-79
2023/07/19 03:36:35;;;;;;;;;;;;;;;16.22;69.19;101279.69;4953210;29;20289;-80
2023/07/19 03:39:03;;;;;;;;;;;;;;;16.25;67.56;101268.88;4962694;28;19934;-80
2023/07/19 03:41:31;;;;;;;;;;;;;;;16.30;67.38;101268.72;4937468;29;20392;-80
2023/07/19 03:43:56;;;;;;;;;;;;;;;16.28;66.99;101276.78;4936440;29;20017;-79
2023/07/19 03:46:22;;;;;;;;;;;;;;;16.26;66.25;101275.09;4937003;29;20385;-80
2023/07/19 03:48:48;;;;;;;;;;;;;;;16.17;67.01;101276.34;4921228;29;19965;-79
2023/07/19 03:51:13;;;;;;;;;;;;;;;16.10;65.00;101277.50;4934952;29;19973;-79
2023/07/19 03:53:39;;;;;;;;;;;;;;;16.09;64.80;101273.91;4936824;29;19918;-80
2023/07/19 03:56:04;;;;;;;;;;;;;;;16.06;65.82;101270.50;4958104;28;20289;-79
2023/07/19 03:58:31;;;;;;;;;;;;;;;15.99;66.55;101271.66;4954192;29;19918;-79
2023/07/19 04:00:57;;;;;;;;;;;;;;;15.96;65.49;101271.78;4944985;29;20267;-79
2023/07/19 04:03:23;;;;;;;;;;;;;;;15.99;67.37;101264.53;4952449;28;19961;-79
2023/07/19 04:05:48;;;;;;;;;;;;;;;16.00;66.02;101268.94;4952250;28;19993;-79
2023/07/19 04:08:14;;;;;;;;;;;;;;;16.01;67.10;101270.69;4943998;29;20005;-79
2023/07/19 04:10:40;;;;;;;;;;;;;;;15.97;69.21;101268.19;4953386;28;19926;-79
2023/07/19 04:13:06;;;;;;;;;;;;;;;15.90;69.16;101260.41;4952608;28;19929;-79
2023/07/19 04:15:32;;;;;;;;;;;;;;;15.86;68.89;101265.91;4920275;29;19965;-79
2023/07/19 04:17:57;;;;;;;;;;;;;;;15.82;66.42;101273.16;4936322;29;20017;-78
2023/07/19 04:20:23;;;;;;;;;;;;;;;15.81;65.87;101271.44;4965607;28;20021;-78
2023/07/19 04:22:48;;;;;;;;;;;;;;;15.82;68.58;101265.16;4952281;29;19929;-79
2023/07/19 04:25:14;;;;;;;;;;;;;;;15.81;69.83;101265.22;4936485;29;20297;-79
2023/07/19 04:27:39;;;;;;;;;;;;;;;15.85;67.22;101265.06;4937189;29;20314;-79
2023/07/19 04:30:07;;;;;;;;;;;;;;;15.90;71.62;101268.44;4952101;29;20301;-79
2023/07/19 04:32:32;;;;;;;;;;;;;;;15.88;69.53;101266.75;4935567;29;20392;-79
2023/07/19 04:34:58;;;;;;;;;;;;;;;15.88;68.99;101270.28;4940408;29;20013;-79
2023/07/19 04:37:24;;;;;;;;;;;;;;;15.90;69.56;101263.09;4951764;29;19946;-78
2023/07/19 04:39:49;;;;;;;;;;;;;;;15.93;70.99;101269.25;4952964;29;19945;-79
2023/07/19 04:42:19;;;;;;;;;;;;;;;15.92;69.17;101276.34;4951862;29;20235;-79
2023/07/19 04:44:46;;;;;;;;;;;;;;;15.96;69.21;101278.00;4940912;29;19925;-79
2023/07/19 04:47:11;;;;;;;;;;;;;;;15.99;70.14;101275.22;4953145;29;19991;-78
2023/07/19 04:49:37;;;;;;;;;;;;;;;16.01;71.20;101285.84;4949796;28;20006;-79
2023/07/19 04:52:02;;;;;;;;;;;;;;;16.04;69.49;101283.06;4952784;29;20013;-79
2023/07/19 04:54:27;;;;;;;;;;;;;;;16.03;69.20;101276.84;4951682;28;19922;-79
2023/07/19 04:56:53;;;;;;;;;;;;;;;16.04;67.37;101280.38;4953237;29;20021;-78
2023/07/19 04:59:19;;;;;;;;;;;;;;;16.06;70.98;101279.38;4935719;29;20374;-78
2023/07/19 05:01:44;;;;;;;;;;;;;;;16.13;73.53;101288.91;4951663;28;19981;-78
2023/07/19 05:04:10;;;;;;;;;;;;;;;16.19;71.26;101282.47;4951471;29;19926;-78
2023/07/19 05:06:35;;;;;;;;;;;;;;;16.23;68.64;101285.91;4951389;29;19986;-78
2023/07/19 05:09:01;;;;;;;;;;;;;;;16.31;72.32;101289.16;4951127;28;19966;-78
2023/07/19 05:11:26;;;;;;;;;;;;;;;16.34;73.31;101286.34;4935285;29;19923;-78
2023/07/19 05:13:51;;;;;;;;;;;;;;;16.38;72.63;101287.97;4951055;29;20036;-78
2023/07/19 05:16:17;;;;;;;;;;;;;;;16.43;73.73;101288.66;4950933;29;19926;-78
2023/07/19 05:18:42;;;;;;;;;;;;;;;16.49;72.83;101283.09;4931261;29;19927;-79
2023/07/19 05:21:08;;;;;;;;;;;;;;;16.55;74.12;101280.16;4921780;29;19927;-78
2023/07/19 05:23:34;;;;;;;;;;;;;;;16.60;72.69;101287.16;4916102;29;19941;-79
2023/07/19 05:25:59;;;;;;;;;;;;;;;16.65;72.95;101291.38;4933472;29;19968;-78
2023/07/19 05:28:24;;;;;;;;;;;;;;;16.71;72.88;101296.47;4933565;29;19978;-78
2023/07/19 05:30:50;;;;;;;;;;;;;;;16.74;70.37;101288.34;4916046;29;20469;-77
2023/07/19 05:33:15;;;;;;;;;;;;;;;16.79;72.75;101285.50;4926588;29;20351;-77
2023/07/19 05:35:42;;;;;;;;;;;;;;;16.81;73.33;101280.94;4935129;29;20381;-77
2023/07/19 05:38:08;;;;;;;;;;;;;;;16.87;74.32;101291.41;4933168;29;19926;-78
2023/07/19 05:40:33;;;;;;;;;;;;;;;16.92;72.70;101286.75;4932995;29;20014;-78
2023/07/19 05:42:58;;;;;;;;;;;;;;;16.97;73.76;101281.19;4928929;29;19935;-77
2023/07/19 05:45:24;;;;;;;;;;;;;;;17.01;71.06;101276.59;4932258;29;19954;-78
2023/07/19 05:47:49;;;;;;;;;;;;;;;17.05;72.09;101279.06;4931313;29;19927;-78
2023/07/19 05:50:14;;;;;;;;;;;;;;;17.10;72.43;101279.75;4929630;29;20425;-78
2023/07/19 05:52:40;;;;;;;;;;;;;;;17.17;72.21;101277.69;4925191;29;20378;-78
2023/07/19 05:55:06;;;;;;;;;;;;;;;17.22;71.09;101280.16;4915577;29;19923;-78
2023/07/19 05:57:31;;;;;;;;;;;;;;;17.29;71.75;101284.34;4914708;29;20021;-77
2023/07/19 06:00:01;;;;;;;;;;;;;;;17.34;70.05;101283.19;4929843;29;20037;-78
2023/07/19 06:02:27;;;;;;;;;;;;;;;17.40;72.33;101285.59;4916462;29;19923;-77
2023/07/19 06:04:52;;;;;;;;;;;;;;;17.44;71.36;101289.03;4932821;29;19937;-78
2023/07/19 06:07:18;;;;;;;;;;;;;;;17.47;71.09;101283.53;4933415;29;19922;-77
2023/07/19 06:09:43;;;;;;;;;;;;;;;17.50;72.26;101286.06;4920405;29;19960;-77
2023/07/19 06:12:09;;;;;;;;;;;;;;;17.55;71.62;101284.03;4927246;29;19974;-77
2023/07/19 06:14:34;;;;;;;;;;;;;;;17.59;69.67;101280.31;4936197;29;19934;-77
2023/07/19 06:16:59;;;;;;;;;;;;;;;17.65;70.67;101283.66;4936464;29;19927;-77
2023/07/19 06:19:25;;;;;;;;;;;;;;;17.69;71.42;101277.22;4932688;29;19934;-77
2023/07/19 06:21:51;;;;;;;;;;;;;;;17.76;71.40;101282.25;4952425;29;19930;-77
2023/07/19 06:24:16;;;;;;;;;;;;;;;17.80;71.23;101278.53;4938039;29;20014;-77
2023/07/19 06:26:41;;;;;;;;;;;;;;;17.87;71.53;101279.09;4952498;29;19923;-77
2023/07/19 06:29:07;;;;;;;;;;;;;;;17.95;71.57;101270.72;4937681;29;19997;-77
2023/07/19 06:31:32;;;;;;;;;;;;;;;18.02;71.50;101269.50;4928937;29;19926;-76
2023/07/19 06:33:58;;;;;;;;;;;;;;;18.12;71.60;101283.34;4950982;29;20370;-77
2023/07/19 06:36:24;;;;;;;;;;;;;;;18.22;71.20;101276.59;4953191;29;19933;-76
2023/07/19 06:38:49;;;;;;;;;;;;;;;18.35;70.69;101279.59;4954918;29;19922;-77
2023/07/19 06:41:14;;;;;;;;;;;;;;;18.51;70.49;101271.69;4937162;29;19929;-77
2023/07/19 06:43:40;;;;;;;;;;;;;;;18.59;70.17;101272.16;4954859;29;20382;-76
2023/07/19 06:46:05;;;;;;;;;;;;;;;18.73;69.32;101274.19;4954360;29;20345;-78
2023/07/19 06:48:30;;;;;;;;;;;;;;;18.84;69.08;101277.22;4954145;29;20017;-78
2023/07/19 06:50:56;;;;;;;;;;;;;;;18.96;67.97;101278.44;4953015;29;19922;-77
2023/07/19 06:53:22;;;;;;;;;;;;;;;19.02;67.23;101275.47;4936930;29;19919;-77
2023/07/19 06:55:47;;;;;;;;;;;;;;;19.07;67.54;101274.28;4948988;29;19978;-77
2023/07/19 06:58:13;;;;;;;;;;;;;;;19.13;66.90;101282.00;4952410;29;19934;-77
2023/07/19 07:00:38;;;;;;;;;;;;;;;19.19;66.72;101283.53;4920080;29;19919;-77
2023/07/19 07:03:03;;;;;;;;;;;;;;;19.27;66.83;101281.31;4952073;28;20034;-77
2023/07/19 07:05:29;;;;;;;;;;;;;;;19.39;66.54;101279.81;4954904;29;20013;-77
2023/07/19 07:07:54;;;;;;;;;;;;;;;19.53;66.19;101282.66;4937805;29;19918;-77
2023/07/19 07:10:20;;;;;;;;;;;;;;;19.62;66.32;101275.94;4937668;29;20465;-77
2023/07/19 07:12:45;;;;;;;;;;;;;;;19.67;66.25;101281.06;4954148;29;20376;-77
2023/07/19 07:15:10;;;;;;;;;;;;;;;19.64;65.44;101295.53;4949962;29;19985;-76
2023/07/19 07:17:38;;;;;;;;;;;;;;;19.64;65.83;101290.16;4954447;29;19933;-77
2023/07/19 07:20:06;;;;;;;;;;;;;;;19.63;65.93;101293.78;4921379;29;19931;-77
2023/07/19 07:22:31;;;;;;;;;;;;;;;19.65;65.82;101280.28;4954549;29;19926;-77
2023/07/19 07:24:57;;;;;;;;;;;;;;;19.69;65.48;101277.38;4937146;29;20353;-77
2023/07/19 07:27:22;;;;;;;;;;;;;;;19.69;65.12;101279.19;4953424;29;19923;-76
2023/07/19 07:29:47;;;;;;;;;;;;;;;19.62;65.35;101281.31;4951373;29;19927;-77
2023/07/19 07:32:13;;;;;;;;;;;;;;;19.63;65.04;101280.34;4954032;29;20029;-77
2023/07/19 07:34:39;;;;;;;;;;;;;;;19.64;65.28;101279.41;4948649;28;20262;-79
2023/07/19 07:37:05;;;;;;;;;;;;;;;19.67;65.19;101276.59;4948234;28;19948;-77
2023/07/19 07:39:30;;;;;;;;;;;;;;;19.71;65.17;101271.94;4950100;28;20281;-77
2023/07/19 07:41:55;;;;;;;;;;;;;;;19.74;65.16;101271.75;4954082;29;19930;-77
2023/07/19 07:44:21;;;;;;;;;;;;;;;19.77;65.53;101277.81;4953045;28;19968;-77
2023/07/19 07:46:47;;;;;;;;;;;;;;;19.77;65.23;101276.97;4954052;29;20270;-77
2023/07/19 07:49:12;;;;;;;;;;;;;;;19.73;65.37;101275.38;4934293;29;20320;-77
2023/07/19 07:51:38;;;;;;;;;;;;;;;19.74;65.31;101272.63;4953672;29;19961;-77
2023/07/19 07:54:03;;;;;;;;;;;;;;;19.79;64.59;101263.47;4936509;29;19942;-78
2023/07/19 07:56:28;;;;;;;;;;;;;;;19.84;65.04;101266.78;4953532;29;19929;-77
2023/07/19 07:58:54;;;;;;;;;;;;;;;19.87;64.29;101270.16;4953688;29;20327;-77
2023/07/19 08:01:19;;;;;;;;;;;;;;;19.85;64.65;101280.09;4953714;29;19948;-77
2023/07/19 08:03:44;;;;;;;;;;;;;;;19.85;64.45;101274.72;4936423;29;19977;-77
2023/07/19 08:06:10;;;;;;;;;;;;;;;19.86;64.90;101272.94;4953811;29;20297;-77
2023/07/19 08:08:35;;;;;;;;;;;;;;;19.92;63.65;101272.59;4953510;28;20006;-77
2023/07/19 08:11:09;;;;;;;;;;;;;;;20.03;62.99;101274.69;4953463;29;19959;-77
2023/07/19 08:13:34;;;;;;;;;;;;;;;20.16;62.91;101267.69;4954125;29;19923;-77
2023/07/19 08:16:00;;;;;;;;;;;;;;;20.21;63.02;101265.63;4953462;29;20289;-77
2023/07/19 08:18:25;;;;;;;;;;;;;;;20.25;63.08;101264.50;4936361;29;19930;-77
2023/07/19 08:20:52;;;;;;;;;;;;;;;20.34;62.85;101249.66;4953688;29;19923;-76
2023/07/19 08:23:17;;;;;;;;;;;;;;;20.41;62.10;101251.91;4953794;29;19919;-77
2023/07/19 08:25:42;;;;;;;;;;;;;;;20.37;62.12;101250.34;4954721;28;19934;-77
2023/07/19 08:28:08;;;;;;;;;;;;;;;20.42;62.78;101250.09;4936301;29;20549;-77
2023/07/19 08:30:33;;;;;;;;;;;;;;;20.52;61.94;101255.81;4936330;29;20017;-77
2023/07/19 08:32:59;;;;;;;;;;;;;;;20.60;62.42;101257.16;4952394;29;20009;-77
2023/07/19 08:35:24;;;;;;;;;;;;;;;20.71;62.32;101253.84;4953635;29;19922;-77
2023/07/19 08:37:49;;;;;;;;;;;;;;;20.77;62.88;101258.00;4953695;29;19927;-77
2023/07/19 08:40:16;;;;;;;;;;;;;;;20.84;61.97;101254.00;4952223;29;19965;-77
2023/07/19 08:42:42;;;;;;;;;;;;;;;20.83;61.48;101252.28;4936239;29;19927;-77
2023/07/19 08:45:08;;;;;;;;;;;;;;;20.83;62.16;101263.03;4951782;28;19970;-77
2023/07/19 08:47:35;;;;;;;;;;;;;;;20.96;61.97;101255.09;4952121;29;20230;-77
2023/07/19 08:50:04;;;;;;;;;;;;;;;21.13;61.73;101248.72;4950737;29;19927;-77
2023/07/19 08:52:30;;;;;;;;;;;;;;;21.35;61.71;101248.31;4935908;29;20358;-77
2023/07/19 08:54:55;;;;;;;;;;;;;;;21.56;60.52;101255.13;4967727;28;19928;-77
2023/07/19 08:57:21;;;;;;;;;;;;;;;21.60;60.04;101255.78;4936048;29;19965;-77
2023/07/19 08:59:46;;;;;;;;;;;;;;;21.78;59.71;101257.31;4952384;29;19919;-77
2023/07/19 09:02:11;;;;;;;;;;;;;;;21.89;58.59;101254.84;4935862;29;20378;-77
2023/07/19 09:04:38;;;;;;;;;;;;;;;21.96;59.20;101254.44;4953065;29;20025;-77
2023/07/19 09:07:03;;;;;;;;;;;;;;;22.02;59.10;101248.69;4947609;29;20009;-78
2023/07/19 09:09:29;;;;;;;;;;;;;;;21.90;58.84;101253.00;4944919;28;20473;-78
2023/07/19 09:11:54;;;;;;;;;;;;;;;21.93;58.79;101249.25;4935597;29;19982;-77
2023/07/19 09:14:32;;;;;;;;;;;;;;;21.89;59.12;101249.44;4951740;29;19926;-77
2023/07/19 09:16:57;;;;;;;;;;;;;;;21.85;59.66;101250.59;4935735;29;19922;-77
2023/07/19 09:19:23;;;;;;;;;;;;;;;21.83;59.54;101249.81;4942593;29;20001;-77
2023/07/19 09:21:50;;;;;;;;;;;;;;;21.79;59.56;101255.53;4932538;29;20035;-77
2023/07/19 09:24:15;;;;;;;;;;;;;;;21.77;59.50;101252.91;4933880;29;19997;-77
2023/07/19 09:26:47;;;;;;;;;;;;;;;21.76;59.02;101253.88;4933912;29;20018;-77
2023/07/19 09:29:12;;;;;;;;;;;;;;;21.69;59.61;101253.38;4933823;29;19919;-77
2023/07/19 09:31:56;;;;;;;;;;;;;;;21.82;59.61;101260.72;4916556;29;19930;-77
2023/07/19 09:34:26;;;;;;;;;;;;;;;21.77;58.16;101254.75;4933577;29;19975;-78
2023/07/19 09:36:52;;;;;;;;;;;;;;;21.63;59.25;101260.97;4933933;29;20398;-78
2023/07/19 09:39:17;;;;;;;;;;;;;;;21.45;59.14;101268.38;4936003;29;19990;-78
2023/07/19 09:41:45;;;;;;;;;;;;;;;21.30;60.27;101263.88;4937682;29;20386;-78
2023/07/19 09:44:11;;;;;;;;;;;;;;;21.32;60.86;101264.66;4933938;29;20393;-78
2023/07/19 09:46:36;;;;;;;;;;;;;;;21.44;61.14;101258.56;4919956;29;19930;-78
2023/07/19 09:49:02;;;;;;;;;;;;;;;21.64;60.76;101257.34;4937573;29;19929;-78
2023/07/19 09:51:29;;;;;;;;;;;;;;;21.87;58.66;101248.69;4937315;29;19920;-77
2023/07/19 09:53:55;;;;;;;;;;;;;;;22.09;58.50;101247.31;4936091;29;20378;-77
2023/07/19 09:56:20;;;;;;;;;;;;;;;22.31;57.33;101244.16;4937330;29;19945;-78
2023/07/19 09:58:46;;;;;;;;;;;;;;;22.49;57.22;101250.16;4937340;29;20008;-77
2023/07/19 10:01:12;;;;;;;;;;;;;;;22.70;55.14;101243.38;4935054;29;19970;-77
2023/07/19 10:03:37;;;;;;;;;;;;;;;22.94;54.34;101251.63;4937202;29;19926;-77
2023/07/19 10:06:03;;;;;;;;;;;;;;;22.95;54.72;101252.53;4936247;29;19929;-78
2023/07/19 10:08:28;;;;;;;;;;;;;;;22.88;53.87;101256.59;4922160;29;19993;-77
2023/07/19 10:10:58;;;;;;;;;;;;;;;22.81;53.12;101256.13;4935705;29;19915;-78
2023/07/19 10:13:30;;;;;;;;;;;;;;;22.73;50.59;101251.25;4935430;29;20326;-78
2023/07/19 10:15:55;;;;;;;;;;;;;;;22.76;52.21;101251.03;4937124;29;19922;-78
2023/07/19 10:18:20;;;;;;;;;;;;;;;22.80;52.17;101256.22;4939303;29;19981;-78
2023/07/19 10:20:58;;;;;;;;;;;;;;;22.80;51.28;101256.22;4936917;29;19922;-78
2023/07/19 10:23:24;;;;;;;;;;;;;;;22.64;50.06;101259.09;4936637;29;19939;-78
2023/07/19 10:25:49;;;;;;;;;;;;;;;22.82;51.25;101247.06;4936638;29;19927;-77
2023/07/19 10:28:29;;;;;;;;;;;;;;;23.08;50.48;101250.75;4951439;29;20299;-77
2023/07/19 10:31:02;;;;;;;;;;;;;;;23.32;50.16;101250.91;4935433;29;19963;-77
2023/07/19 10:33:28;;;;;;;;;;;;;;;23.43;48.10;101236.66;4936888;29;19926;-78
2023/07/19 10:35:58;;;;;;;;;;;;;;;23.40;48.86;101250.38;4934760;29;20139;-77
2023/07/19 10:38:25;;;;;;;;;;;;;;;23.38;48.55;101250.47;4936602;29;19922;-77
2023/07/19 10:40:54;;;;;;;;;;;;;;;23.38;48.68;101247.78;4936477;29;19919;-78
2023/07/19 10:43:20;;;;;;;;;;;;;;;23.39;48.32;101254.94;4923501;29;19930;-78
2023/07/19 10:45:45;;;;;;;;;;;;;;;23.25;48.09;101249.59;4931903;29;19919;-78
2023/07/19 10:48:11;;;;;;;;;;;;;;;23.16;48.64;101253.78;4935838;29;19930;-78
2023/07/19 10:50:36;;;;;;;;;;;;;;;23.04;49.66;101248.34;4935170;29;19929;-78
2023/07/19 10:53:01;;;;;;;;;;;;;;;23.00;49.82;101250.41;4937856;29;20321;-79
2023/07/19 10:55:28;;;;;;;;;;;;;;;22.99;49.42;101254.06;4947275;29;19958;-78
2023/07/19 10:57:53;;;;;;;;;;;;;;;22.98;49.74;101243.38;4940452;29;19922;-78
2023/07/19 11:00:19;;;;;;;;;;;;;;;22.96;49.99;101238.91;4936391;29;19923;-78
2023/07/19 11:02:44;;;;;;;;;;;;;;;22.92;49.99;101250.00;4934779;29;19926;-78
2023/07/19 11:05:10;;;;;;;;;;;;;;;22.77;50.12;101249.19;4935927;29;19926;-78
2023/07/19 11:07:36;;;;;;;;;;;;;;;22.67;50.75;101251.66;4936410;29;20017;-78
2023/07/19 11:10:01;;;;;;;;;;;;;;;22.59;51.38;101258.53;4939523;29;19922;-78
2023/07/19 11:12:27;;;;;;;;;;;;;;;22.53;51.04;101255.28;4934981;29;20462;-79
2023/07/19 11:14:58;;;;;;;;;;;;;;;22.50;51.57;101254.59;4936056;29;19919;-78
2023/07/19 11:17:26;;;;;;;;;;;;;;;22.46;52.14;101248.53;4922268;29;20330;-78
2023/07/19 11:19:52;;;;;;;;;;;;;;;22.59;52.11;101245.03;4934225;29;20005;-78
2023/07/19 11:22:22;;;;;;;;;;;;;;;22.79;52.16;101241.00;4934339;29;20030;-77
2023/07/19 11:24:49;;;;;;;;;;;;;;;23.10;51.62;101250.66;4935711;29;19922;-78
2023/07/19 11:27:15;;;;;;;;;;;;;;;23.22;51.35;101251.63;4935673;29;19998;-77
2023/07/19 11:29:41;;;;;;;;;;;;;;;23.22;51.27;101241.72;4935665;29;20021;-77
2023/07/19 11:32:16;;;;;;;;;;;;;;;23.36;51.38;101244.31;4935609;29;20401;-77
2023/07/19 11:34:49;;;;;;;;;;;;;;;23.78;51.33;101227.91;4918236;29;19923;-77
2023/07/19 11:37:15;;;;;;;;;;;;;;;24.16;49.00;101227.88;4935409;29;20374;-77
2023/07/19 11:39:40;;;;;;;;;;;;;;;24.34;46.96;101225.66;4918169;29;19923;-77
2023/07/19 11:42:06;;;;;;;;;;;;;;;24.51;47.94;101227.13;4935406;29;19927;-77
2023/07/19 11:44:32;;;;;;;;;;;;;;;24.87;46.62;101219.91;4934765;29;19922;-77
2023/07/19 11:46:57;;;;;;;;;;;;;;;24.97;45.26;101228.22;4934168;29;19927;-77
2023/07/19 11:49:23;;;;;;;;;;;;;;;25.08;44.12;101226.41;4934732;29;19923;-78
2023/07/19 11:51:49;;;;;;;;;;;;;;;25.10;45.25;101232.59;4932093;29;19923;-77
2023/07/19 11:54:15;;;;;;;;;;;;;;;25.36;45.23;101221.59;4934972;29;19927;-77
2023/07/19 11:56:40;;;;;;;;;;;;;;;25.61;43.20;101223.22;4935046;29;19943;-77
2023/07/19 11:59:05;;;;;;;;;;;;;;;25.80;43.78;101210.91;4934927;29;19918;-77
2023/07/19 12:01:31;;;;;;;;;;;;;;;25.65;43.16;101219.28;4934026;29;19938;-77
2023/07/19 12:04:01;;;;;;;;;;;;;;;25.36;43.00;101226.16;4933349;29;20286;-78
2023/07/19 12:06:27;;;;;;;;;;;;;;;25.23;43.62;101218.13;4917532;29;20476;-78
2023/07/19 12:08:52;;;;;;;;;;;;;;;24.95;44.67;101220.22;4934773;29;19923;-78
2023/07/19 12:11:18;;;;;;;;;;;;;;;24.99;46.02;101221.69;4933600;29;19930;-77
2023/07/19 12:13:43;;;;;;;;;;;;;;;24.98;44.67;101230.81;4934691;29;19922;-78
2023/07/19 12:16:08;;;;;;;;;;;;;;;24.80;44.66;101233.09;4934520;29;19948;-78
2023/07/19 12:18:34;;;;;;;;;;;;;;;24.60;45.10;101228.28;4934954;29;20266;-79
2023/07/19 12:21:00;;;;;;;;;;;;;;;24.34;45.14;101233.78;4942379;29;19923;-79
2023/07/19 12:23:25;;;;;;;;;;;;;;;24.18;45.77;101228.63;4953819;29;20332;-79
2023/07/19 12:25:50;;;;;;;;;;;;;;;24.02;46.25;101234.28;4936195;29;19937;-78
2023/07/19 12:28:16;;;;;;;;;;;;;;;24.11;46.86;101231.88;4953739;29;19922;-78